createdAt,value
2022-12-31T00:00:08.195Z,50.60
2022-12-31T00:01:12.198Z,50.60
2022-12-31T00:02:14.669Z,50.50
2022-12-31T00:03:17.154Z,50.50
2022-12-31T00:04:19.587Z,50.60
2022-12-31T00:05:22.631Z,50.60
2022-12-31T00:06:31.192Z,50.40
2022-12-31T00:08:37.128Z,50.40
2022-12-31T00:09:39.390Z,50.40
2022-12-31T00:10:41.881Z,50.40
2022-12-31T00:11:44.510Z,50.40
2022-12-31T00:12:46.905Z,50.30
2022-12-31T00:13:50.199Z,50.30
2022-12-31T00:14:52.648Z,50.30
2022-12-31T00:15:55.049Z,50.20
2022-12-31T00:16:57.414Z,50.30
2022-12-31T00:17:59.864Z,50.20
2022-12-31T00:19:03.028Z,50.30
2022-12-31T00:20:05.914Z,50.20
2022-12-31T00:21:09.534Z,50.20
2022-12-31T00:22:11.794Z,50.10
2022-12-31T00:23:15.483Z,50.10
2022-12-31T00:24:17.801Z,50.00
2022-12-31T00:25:20.122Z,50.00
2022-12-31T00:26:25.564Z,50.10
2022-12-31T00:27:31.275Z,49.90
2022-12-31T00:28:34.676Z,49.90
2022-12-31T00:29:37.109Z,50.00
2022-12-31T00:30:39.433Z,50.00
2022-12-31T00:31:41.907Z,49.90
2022-12-31T00:32:44.261Z,49.90
2022-12-31T00:33:46.667Z,49.90
2022-12-31T00:34:49.003Z,50.00
2022-12-31T00:35:51.347Z,50.10
2022-12-31T00:36:53.632Z,50.00
2022-12-31T00:37:56.010Z,50.10
2022-12-31T00:38:59.899Z,50.00
2022-12-31T00:40:02.324Z,50.10
2022-12-31T00:41:07.228Z,50.10
2022-12-31T00:42:09.535Z,50.20
2022-12-31T00:43:11.823Z,50.20
2022-12-31T00:44:14.246Z,50.80
2022-12-31T00:45:16.670Z,50.30
2022-12-31T00:46:20.106Z,50.30
2022-12-31T00:47:24.525Z,50.30
2022-12-31T00:48:27.430Z,50.40
2022-12-31T00:49:29.822Z,50.40
2022-12-31T00:50:32.182Z,50.10
2022-12-31T00:51:34.573Z,50.10
2022-12-31T00:52:37.005Z,50.70
2022-12-31T00:53:39.677Z,50.10
2022-12-31T00:54:42.003Z,50.20
2022-12-31T00:55:44.306Z,50.30
2022-12-31T00:56:46.591Z,50.50
2022-12-31T00:57:48.876Z,50.50
2022-12-31T00:58:51.566Z,50.70
2022-12-31T00:59:53.865Z,50.90
2022-12-31T01:00:56.623Z,50.90
2022-12-31T01:01:59.149Z,51.10
2022-12-31T01:03:01.700Z,51.10
2022-12-31T01:04:10.936Z,51.30
2022-12-31T01:05:13.193Z,51.30
2022-12-31T01:06:16.573Z,51.40
2022-12-31T01:07:19.276Z,51.50
2022-12-31T01:08:21.518Z,51.60
2022-12-31T01:09:23.803Z,51.80
2022-12-31T01:10:44.879Z,51.80
2022-12-31T01:11:49.701Z,51.90
2022-12-31T01:12:52.052Z,51.80
2022-12-31T01:13:59.135Z,51.80
2022-12-31T01:15:01.480Z,51.70
2022-12-31T01:16:08.818Z,51.70
2022-12-31T01:17:13.195Z,51.70
2022-12-31T01:18:15.526Z,51.70
2022-12-31T01:19:24.052Z,51.70
2022-12-31T01:20:26.329Z,51.70
2022-12-31T01:21:29.819Z,51.80
2022-12-31T01:22:32.335Z,51.70
2022-12-31T01:23:35.018Z,51.60
2022-12-31T01:24:37.280Z,51.60
2022-12-31T01:25:41.879Z,51.80
2022-12-31T01:26:44.991Z,51.70
2022-12-31T01:27:47.413Z,51.50
2022-12-31T01:28:49.871Z,51.30
2022-12-31T01:29:52.192Z,51.20
2022-12-31T01:30:55.439Z,51.20
2022-12-31T01:31:57.930Z,51.40
2022-12-31T01:33:00.463Z,51.20
2022-12-31T01:34:03.882Z,51.20
2022-12-31T01:35:06.708Z,51.20
2022-12-31T01:36:12.777Z,51.00
2022-12-31T01:37:15.058Z,51.10
2022-12-31T01:38:17.434Z,51.10
2022-12-31T01:39:19.735Z,50.90
2022-12-31T01:40:22.130Z,51.00
2022-12-31T01:41:33.481Z,51.10
2022-12-31T01:42:35.905Z,51.10
2022-12-31T01:43:46.363Z,51.00
2022-12-31T01:44:52.929Z,50.80
2022-12-31T01:45:55.434Z,50.90
2022-12-31T01:47:05.436Z,50.80
2022-12-31T01:48:12.320Z,50.80
2022-12-31T01:49:40.346Z,50.70
2022-12-31T01:50:44.390Z,51.10
2022-12-31T01:51:52.328Z,50.50
2022-12-31T01:52:58.827Z,50.40
2022-12-31T01:54:05.685Z,50.50
2022-12-31T01:55:37.908Z,50.30
2022-12-31T01:56:41.943Z,50.30
2022-12-31T01:57:47.830Z,50.00
2022-12-31T01:58:52.352Z,50.10
2022-12-31T01:59:56.377Z,49.80
2022-12-31T02:00:59.210Z,50.00
2022-12-31T02:02:01.981Z,50.10
2022-12-31T02:03:06.874Z,49.80
2022-12-31T02:04:12.944Z,49.80
2022-12-31T02:05:46.021Z,49.90
2022-12-31T02:06:53.556Z,49.60
2022-12-31T02:07:57.269Z,49.70
2022-12-31T02:08:59.950Z,49.30
2022-12-31T02:10:02.349Z,49.50
2022-12-31T02:11:20.843Z,49.20
2022-12-31T02:12:23.643Z,49.30
2022-12-31T02:13:26.199Z,49.40
2022-12-31T02:14:35.079Z,49.50
2022-12-31T02:15:45.811Z,49.50
2022-12-31T02:17:15.190Z,48.70
2022-12-31T02:18:25.291Z,48.80
2022-12-31T02:19:42.398Z,48.80
2022-12-31T02:21:06.065Z,48.90
2022-12-31T02:22:45.565Z,49.00
2022-12-31T02:24:06.497Z,49.00
2022-12-31T02:25:46.139Z,48.90
2022-12-31T02:26:59.482Z,49.30
2022-12-31T02:28:27.875Z,49.30
2022-12-31T02:30:06.813Z,49.10
2022-12-31T02:31:18.282Z,49.30
2022-12-31T02:32:32.450Z,49.30
2022-12-31T02:33:47.476Z,49.20
2022-12-31T02:35:01.085Z,48.90
2022-12-31T02:36:09.759Z,49.00
2022-12-31T02:37:14.450Z,49.00
2022-12-31T02:38:22.509Z,49.40
2022-12-31T02:39:25.350Z,49.20
2022-12-31T02:40:28.087Z,49.40
2022-12-31T02:41:49.126Z,49.20
2022-12-31T02:42:55.315Z,49.10
2022-12-31T02:43:57.954Z,49.10
2022-12-31T02:45:00.224Z,49.30
2022-12-31T02:46:16.051Z,49.50
2022-12-31T02:47:42.692Z,49.30
2022-12-31T02:49:04.869Z,49.60
2022-12-31T02:50:55.398Z,49.30
2022-12-31T02:52:20.899Z,49.30
2022-12-31T02:53:33.863Z,49.10
2022-12-31T02:54:41.744Z,49.20
2022-12-31T02:56:16.418Z,49.40
2022-12-31T02:57:46.667Z,49.40
2022-12-31T02:59:27.430Z,49.40
2022-12-31T03:00:50.052Z,49.50
2022-12-31T03:02:15.567Z,49.40
2022-12-31T03:03:20.241Z,49.00
2022-12-31T03:04:32.715Z,48.90
2022-12-31T03:05:40.283Z,48.80
2022-12-31T03:06:43.511Z,49.10
2022-12-31T03:07:46.241Z,49.10
2022-12-31T03:09:07.366Z,49.10
2022-12-31T03:10:10.220Z,49.20
2022-12-31T03:11:32.532Z,49.30
2022-12-31T03:12:48.384Z,49.30
2022-12-31T03:13:50.817Z,49.40
2022-12-31T03:14:53.407Z,49.50
2022-12-31T03:15:55.869Z,49.40
2022-12-31T03:16:58.389Z,49.90
2022-12-31T03:18:00.647Z,49.60
2022-12-31T03:19:21.708Z,49.40
2022-12-31T03:21:04.454Z,49.30
2022-12-31T03:22:25.453Z,49.40
2022-12-31T03:23:32.321Z,49.30
2022-12-31T03:24:53.529Z,49.70
2022-12-31T03:25:56.414Z,49.70
2022-12-31T03:26:58.757Z,49.60
2022-12-31T03:28:08.118Z,49.50
2022-12-31T03:29:10.747Z,49.70
2022-12-31T03:30:18.505Z,49.70
2022-12-31T03:31:21.117Z,49.70
2022-12-31T03:32:23.623Z,49.60
2022-12-31T03:33:29.980Z,49.80
2022-12-31T03:34:32.384Z,49.70
2022-12-31T03:35:36.792Z,49.70
2022-12-31T03:36:39.569Z,49.80
2022-12-31T03:37:42.878Z,49.80
2022-12-31T03:38:48.571Z,49.80
2022-12-31T03:39:54.928Z,49.70
2022-12-31T03:40:57.245Z,49.80
2022-12-31T03:42:00.974Z,49.80
2022-12-31T03:43:03.307Z,49.60
2022-12-31T03:44:06.146Z,49.80
2022-12-31T03:45:13.150Z,49.60
2022-12-31T03:46:15.717Z,49.70
2022-12-31T03:47:18.095Z,49.70
2022-12-31T03:48:23.062Z,49.70
2022-12-31T03:49:25.396Z,49.70
2022-12-31T03:50:28.633Z,49.70
2022-12-31T03:51:30.991Z,49.70
2022-12-31T03:52:33.347Z,49.70
2022-12-31T03:53:35.656Z,49.60
2022-12-31T03:54:37.996Z,49.60
2022-12-31T03:55:40.307Z,49.70
2022-12-31T03:56:42.929Z,49.70
2022-12-31T03:57:45.440Z,49.70
2022-12-31T03:58:47.830Z,49.80
2022-12-31T03:59:50.199Z,49.60
2022-12-31T04:00:52.714Z,49.80
2022-12-31T04:01:55.289Z,49.80
2022-12-31T04:02:58.013Z,49.80
2022-12-31T04:04:00.359Z,49.70
2022-12-31T04:05:03.119Z,49.60
2022-12-31T04:06:05.598Z,49.50
2022-12-31T04:07:08.094Z,49.60
2022-12-31T04:08:10.415Z,49.60
2022-12-31T04:09:12.732Z,49.60
2022-12-31T04:10:17.203Z,49.50
2022-12-31T04:11:21.212Z,49.50
2022-12-31T04:12:23.721Z,49.50
2022-12-31T04:13:26.186Z,49.50
2022-12-31T04:14:28.605Z,49.60
2022-12-31T04:15:30.928Z,49.60
2022-12-31T04:16:33.283Z,49.60
2022-12-31T04:17:35.694Z,49.60
2022-12-31T04:18:37.961Z,49.50
2022-12-31T04:19:40.280Z,49.50
2022-12-31T04:20:42.598Z,49.60
2022-12-31T04:21:45.113Z,49.60
2022-12-31T04:22:48.147Z,49.40
2022-12-31T04:23:50.545Z,49.40
2022-12-31T04:24:52.840Z,49.50
2022-12-31T04:25:55.167Z,49.60
2022-12-31T04:27:03.637Z,49.90
2022-12-31T04:28:09.466Z,49.90
2022-12-31T04:29:11.848Z,49.80
2022-12-31T04:30:14.530Z,49.80
2022-12-31T04:31:16.928Z,49.80
2022-12-31T04:32:19.330Z,49.80
2022-12-31T04:33:21.635Z,49.70
2022-12-31T04:34:23.997Z,49.50
2022-12-31T04:35:26.311Z,49.50
2022-12-31T04:36:28.569Z,49.50
2022-12-31T04:37:30.858Z,49.40
2022-12-31T04:38:34.203Z,49.40
2022-12-31T04:39:36.620Z,49.40
2022-12-31T04:40:58.979Z,49.30
2022-12-31T04:42:01.381Z,49.30
2022-12-31T04:43:03.707Z,49.40
2022-12-31T04:44:06.052Z,49.40
2022-12-31T04:45:08.878Z,49.50
2022-12-31T04:46:11.294Z,49.60
2022-12-31T04:47:16.287Z,49.70
2022-12-31T04:48:22.468Z,49.80
2022-12-31T04:49:24.736Z,49.90
2022-12-31T04:50:27.052Z,50.00
2022-12-31T04:51:30.540Z,50.10
2022-12-31T04:52:37.058Z,50.10
2022-12-31T04:53:42.796Z,50.00
2022-12-31T04:54:45.168Z,50.10
2022-12-31T04:55:47.527Z,50.20
2022-12-31T04:56:49.818Z,50.20
2022-12-31T04:57:52.192Z,50.10
2022-12-31T04:58:54.817Z,50.10
2022-12-31T04:59:57.250Z,49.90
2022-12-31T05:01:00.046Z,50.10
2022-12-31T05:02:02.685Z,50.00
2022-12-31T05:03:05.301Z,50.00
2022-12-31T05:04:07.839Z,49.80
2022-12-31T05:05:10.269Z,50.00
2022-12-31T05:06:20.114Z,49.90
2022-12-31T05:07:22.399Z,49.90
2022-12-31T05:08:24.662Z,49.80
2022-12-31T05:09:28.324Z,49.90
2022-12-31T05:10:30.779Z,49.90
2022-12-31T05:11:33.182Z,49.90
2022-12-31T05:12:35.629Z,49.90
2022-12-31T05:13:38.247Z,49.90
2022-12-31T05:14:40.540Z,49.90
2022-12-31T05:15:43.105Z,49.90
2022-12-31T05:16:45.449Z,49.70
2022-12-31T05:17:47.749Z,49.60
2022-12-31T05:18:50.187Z,49.70
2022-12-31T05:19:52.489Z,50.10
2022-12-31T05:20:54.816Z,49.70
2022-12-31T05:22:15.842Z,49.70
2022-12-31T05:23:18.490Z,50.10
2022-12-31T05:24:20.994Z,49.50
2022-12-31T05:25:23.394Z,49.50
2022-12-31T05:26:25.783Z,49.60
2022-12-31T05:27:30.971Z,49.70
2022-12-31T05:28:33.513Z,49.70
2022-12-31T05:29:35.768Z,49.90
2022-12-31T05:30:38.760Z,50.30
2022-12-31T05:31:41.132Z,49.90
2022-12-31T05:32:43.486Z,49.90
2022-12-31T05:33:45.816Z,49.90
2022-12-31T05:34:48.171Z,49.90
2022-12-31T05:35:50.602Z,49.80
2022-12-31T05:36:52.961Z,49.90
2022-12-31T05:37:55.434Z,49.90
2022-12-31T05:38:57.784Z,49.90
2022-12-31T05:40:00.295Z,49.90
2022-12-31T05:41:07.727Z,49.90
2022-12-31T05:42:10.129Z,50.00
2022-12-31T05:43:12.397Z,49.90
2022-12-31T05:44:14.701Z,50.00
2022-12-31T05:45:18.455Z,50.10
2022-12-31T05:46:20.884Z,50.10
2022-12-31T05:47:23.536Z,50.00
2022-12-31T05:48:25.817Z,50.10
2022-12-31T05:49:28.088Z,50.10
2022-12-31T05:50:30.537Z,50.10
2022-12-31T05:51:36.281Z,50.00
2022-12-31T05:52:38.913Z,50.10
2022-12-31T05:53:41.251Z,50.10
2022-12-31T05:54:43.634Z,50.10
2022-12-31T05:55:48.915Z,50.10
2022-12-31T05:56:51.480Z,50.10
2022-12-31T05:57:53.828Z,50.00
2022-12-31T05:58:56.657Z,50.00
2022-12-31T05:59:58.990Z,50.00
2022-12-31T06:01:01.414Z,50.00
2022-12-31T06:02:04.101Z,49.90
2022-12-31T06:03:06.555Z,50.00
2022-12-31T06:04:09.052Z,50.00
2022-12-31T06:05:12.276Z,49.90
2022-12-31T06:06:14.639Z,49.90
2022-12-31T06:07:16.945Z,49.90
2022-12-31T06:08:19.271Z,49.80
2022-12-31T06:09:22.148Z,49.80
2022-12-31T06:10:24.481Z,49.70
2022-12-31T06:11:26.847Z,49.70
2022-12-31T06:12:29.255Z,49.60
2022-12-31T06:13:31.608Z,49.60
2022-12-31T06:14:33.996Z,49.70
2022-12-31T06:15:40.139Z,49.60
2022-12-31T06:16:43.251Z,49.60
2022-12-31T06:17:45.712Z,49.70
2022-12-31T06:18:50.715Z,49.70
2022-12-31T06:19:53.066Z,49.70
2022-12-31T06:20:58.481Z,49.80
2022-12-31T06:22:00.965Z,49.80
2022-12-31T06:23:03.568Z,49.90
2022-12-31T06:24:06.281Z,49.70
2022-12-31T06:25:09.100Z,49.80
2022-12-31T06:26:11.448Z,49.90
2022-12-31T06:27:13.780Z,49.80
2022-12-31T06:28:20.300Z,49.70
2022-12-31T06:29:22.985Z,49.80
2022-12-31T06:30:25.304Z,49.90
2022-12-31T06:31:27.963Z,49.70
2022-12-31T06:32:30.636Z,49.70
2022-12-31T06:33:33.425Z,49.70
2022-12-31T06:34:35.733Z,49.80
2022-12-31T06:35:38.454Z,49.90
2022-12-31T06:36:40.980Z,49.90
2022-12-31T06:37:43.294Z,49.90
2022-12-31T06:38:45.592Z,49.90
2022-12-31T06:39:47.978Z,49.90
2022-12-31T06:40:50.775Z,50.00
2022-12-31T06:41:53.269Z,50.10
2022-12-31T06:42:59.827Z,50.00
2022-12-31T06:44:02.906Z,49.90
2022-12-31T06:45:05.836Z,49.90
2022-12-31T06:46:11.817Z,49.80
2022-12-31T06:47:14.182Z,49.80
2022-12-31T06:48:16.639Z,49.80
2022-12-31T06:49:19.059Z,49.80
2022-12-31T06:50:21.360Z,49.60
2022-12-31T06:51:23.877Z,49.70
2022-12-31T06:52:26.163Z,49.80
2022-12-31T06:53:28.521Z,49.70
2022-12-31T06:54:30.940Z,49.80
2022-12-31T06:55:34.470Z,49.80
2022-12-31T06:56:38.146Z,49.70
2022-12-31T06:57:40.978Z,49.70
2022-12-31T06:58:44.140Z,49.60
2022-12-31T06:59:46.746Z,49.70
2022-12-31T07:01:22.693Z,49.70
2022-12-31T07:02:30.964Z,49.70
2022-12-31T07:03:50.319Z,49.60
2022-12-31T07:05:21.354Z,49.80
2022-12-31T07:06:34.291Z,49.80
2022-12-31T07:08:10.232Z,49.70
2022-12-31T07:09:25.133Z,49.70
2022-12-31T07:10:46.122Z,49.60
2022-12-31T07:12:15.662Z,50.00
2022-12-31T07:13:25.189Z,49.50
2022-12-31T07:14:48.416Z,49.50
2022-12-31T07:16:06.352Z,49.70
2022-12-31T07:17:46.229Z,49.50
2022-12-31T07:19:03.431Z,49.50
2022-12-31T07:20:14.267Z,49.70
2022-12-31T07:21:31.763Z,49.60
2022-12-31T07:22:34.445Z,49.60
2022-12-31T07:23:37.091Z,49.50
2022-12-31T07:24:39.803Z,49.70
2022-12-31T07:25:53.177Z,49.90
2022-12-31T07:27:04.320Z,49.90
2022-12-31T07:28:34.889Z,49.70
2022-12-31T07:29:45.655Z,50.00
2022-12-31T07:31:07.482Z,49.90
2022-12-31T07:32:35.676Z,49.40
2022-12-31T07:33:51.688Z,48.90
2022-12-31T07:35:08.851Z,48.60
2022-12-31T07:36:20.032Z,48.80
2022-12-31T07:37:43.849Z,48.60
2022-12-31T07:39:10.306Z,48.70
2022-12-31T07:40:12.641Z,48.70
2022-12-31T07:41:20.750Z,48.40
2022-12-31T07:42:35.777Z,49.10
2022-12-31T07:43:59.961Z,48.60
2022-12-31T07:45:26.545Z,48.60
2022-12-31T07:46:43.898Z,48.60
2022-12-31T07:47:46.582Z,48.60
2022-12-31T07:48:49.123Z,48.70
2022-12-31T07:49:52.103Z,48.70
2022-12-31T07:50:56.643Z,48.70
2022-12-31T07:51:59.494Z,48.70
2022-12-31T07:53:02.128Z,48.70
2022-12-31T07:54:10.193Z,48.70
2022-12-31T07:55:16.508Z,48.70
2022-12-31T07:56:18.847Z,48.60
2022-12-31T07:57:27.293Z,48.70
2022-12-31T07:58:48.420Z,48.60
2022-12-31T07:59:56.688Z,48.70
2022-12-31T08:01:00.195Z,48.80
2022-12-31T08:02:15.624Z,48.70
2022-12-31T08:03:27.229Z,48.70
2022-12-31T08:04:46.937Z,48.70
2022-12-31T08:06:01.455Z,48.70
2022-12-31T08:07:34.196Z,48.70
2022-12-31T08:09:16.141Z,48.70
2022-12-31T08:10:37.423Z,48.70
2022-12-31T08:11:59.512Z,48.60
2022-12-31T08:14:29.995Z,48.80
2022-12-31T08:15:33.185Z,48.70
2022-12-31T08:16:35.967Z,48.70
2022-12-31T08:17:38.663Z,48.70
2022-12-31T08:18:44.249Z,48.70
2022-12-31T08:19:47.104Z,48.80
2022-12-31T08:21:05.009Z,48.80
2022-12-31T08:22:15.250Z,48.70
2022-12-31T08:23:28.410Z,48.80
2022-12-31T08:24:49.153Z,48.80
2022-12-31T08:26:18.677Z,48.30
2022-12-31T08:27:51.563Z,48.70
2022-12-31T08:29:04.568Z,48.70
2022-12-31T08:30:14.958Z,48.60
2022-12-31T08:31:21.398Z,48.60
2022-12-31T08:32:29.059Z,48.50
2022-12-31T08:34:06.178Z,48.50
2022-12-31T08:35:56.326Z,48.30
2022-12-31T08:37:13.213Z,48.60
2022-12-31T08:38:56.096Z,48.60
2022-12-31T08:40:08.040Z,48.20
2022-12-31T08:41:13.942Z,47.80
2022-12-31T08:42:53.731Z,47.90
2022-12-31T08:44:01.973Z,48.30
2022-12-31T08:45:35.865Z,48.30
2022-12-31T08:46:56.778Z,48.40
2022-12-31T08:48:24.677Z,48.40
2022-12-31T08:49:30.089Z,48.40
2022-12-31T08:50:32.744Z,48.50
2022-12-31T08:51:35.507Z,48.60
2022-12-31T08:52:38.211Z,48.50
2022-12-31T08:53:40.924Z,48.50
2022-12-31T08:54:43.505Z,48.60
2022-12-31T08:55:47.633Z,48.50
2022-12-31T08:57:04.569Z,48.60
2022-12-31T08:58:22.600Z,48.60
2022-12-31T08:59:29.962Z,48.50
2022-12-31T09:00:33.698Z,48.60
2022-12-31T09:01:50.890Z,48.70
2022-12-31T09:03:31.839Z,48.70
2022-12-31T09:04:53.781Z,48.60
2022-12-31T09:06:44.211Z,48.70
2022-12-31T09:08:24.938Z,48.80
2022-12-31T09:09:39.491Z,48.80
2022-12-31T09:10:58.562Z,48.80
2022-12-31T09:12:23.317Z,48.70
2022-12-31T09:13:58.854Z,48.90
2022-12-31T09:15:25.574Z,48.80
2022-12-31T09:16:44.263Z,48.80
2022-12-31T09:17:51.033Z,48.80
2022-12-31T09:18:54.136Z,49.00
2022-12-31T09:19:57.445Z,48.80
2022-12-31T09:21:00.695Z,48.70
2022-12-31T09:22:04.109Z,48.70
2022-12-31T09:23:06.855Z,48.70
2022-12-31T09:24:12.291Z,48.60
2022-12-31T09:25:16.862Z,48.80
2022-12-31T09:26:46.015Z,48.80
2022-12-31T09:28:31.520Z,48.80
2022-12-31T09:29:55.148Z,48.80
2022-12-31T09:31:11.887Z,48.80
2022-12-31T09:32:19.908Z,48.80
2022-12-31T09:33:25.083Z,48.80
2022-12-31T09:34:45.694Z,48.80
2022-12-31T09:35:58.348Z,48.80
2022-12-31T09:37:06.847Z,48.80
2022-12-31T09:38:20.656Z,49.10
2022-12-31T09:39:27.309Z,48.80
2022-12-31T09:40:32.659Z,48.80
2022-12-31T09:42:04.151Z,48.90
2022-12-31T09:43:24.575Z,48.90
2022-12-31T09:44:58.341Z,48.80
2022-12-31T09:46:23.071Z,48.80
2022-12-31T09:48:00.089Z,48.90
2022-12-31T09:49:21.550Z,48.90
2022-12-31T09:50:43.489Z,48.90
2022-12-31T09:52:09.044Z,48.90
2022-12-31T09:53:22.932Z,48.90
2022-12-31T09:54:47.675Z,48.90
2022-12-31T09:56:05.767Z,48.90
2022-12-31T09:57:40.587Z,48.90
2022-12-31T09:59:10.198Z,48.50
2022-12-31T10:00:23.786Z,48.80
2022-12-31T10:01:48.553Z,48.80
2022-12-31T10:03:24.677Z,48.90
2022-12-31T10:04:55.181Z,49.00
2022-12-31T10:06:24.394Z,49.10
2022-12-31T10:07:55.617Z,48.70
2022-12-31T10:09:21.826Z,48.90
2022-12-31T10:10:46.901Z,48.70
2022-12-31T10:11:58.273Z,48.60
2022-12-31T10:13:20.244Z,48.80
2022-12-31T10:14:29.345Z,48.90
2022-12-31T10:15:41.546Z,48.90
2022-12-31T10:16:58.881Z,48.80
2022-12-31T10:18:24.654Z,48.90
2022-12-31T10:19:51.467Z,48.80
2022-12-31T10:21:06.707Z,48.80
2022-12-31T10:22:34.659Z,48.70
2022-12-31T10:23:52.371Z,48.70
2022-12-31T10:25:00.579Z,48.50
2022-12-31T10:26:30.064Z,48.60
2022-12-31T10:27:32.480Z,48.40
2022-12-31T10:28:55.019Z,48.50
2022-12-31T10:30:03.633Z,48.60
2022-12-31T10:31:39.906Z,48.80
2022-12-31T10:32:54.152Z,48.80
2022-12-31T10:34:31.068Z,48.70
2022-12-31T10:36:10.329Z,48.90
2022-12-31T10:37:18.384Z,48.80
2022-12-31T10:38:51.545Z,48.80
2022-12-31T10:40:19.931Z,48.80
2022-12-31T10:41:43.579Z,48.70
2022-12-31T10:43:27.989Z,48.80
2022-12-31T10:45:02.095Z,48.90
2022-12-31T10:46:32.344Z,49.80
2022-12-31T10:47:59.380Z,49.00
2022-12-31T10:49:21.596Z,48.40
2022-12-31T10:50:42.856Z,48.40
2022-12-31T10:52:02.371Z,48.20
2022-12-31T10:53:13.519Z,47.50
2022-12-31T10:54:53.127Z,47.60
2022-12-31T10:56:17.377Z,47.80
2022-12-31T10:58:03.754Z,47.90
2022-12-31T10:59:31.024Z,48.00
2022-12-31T11:01:04.100Z,47.50
2022-12-31T11:02:48.416Z,47.90
2022-12-31T11:04:29.832Z,47.50
2022-12-31T11:05:54.721Z,47.80
2022-12-31T11:07:15.544Z,47.50
2022-12-31T11:08:51.599Z,47.50
2022-12-31T11:10:09.016Z,47.00
2022-12-31T11:11:17.559Z,47.30
2022-12-31T11:12:57.298Z,47.70
2022-12-31T11:14:24.000Z,47.70
2022-12-31T11:16:07.574Z,47.90
2022-12-31T11:17:32.878Z,47.80
2022-12-31T11:19:02.275Z,46.40
2022-12-31T11:20:20.599Z,46.60
2022-12-31T11:22:07.865Z,48.50
2022-12-31T11:23:39.017Z,45.70
2022-12-31T11:25:12.724Z,46.00
2022-12-31T11:26:15.071Z,45.40
2022-12-31T11:27:49.278Z,45.30
2022-12-31T11:29:30.019Z,45.40
2022-12-31T11:30:54.241Z,45.90
2022-12-31T11:32:01.843Z,45.70
2022-12-31T11:33:18.527Z,46.30
2022-12-31T11:34:34.532Z,45.40
2022-12-31T11:36:14.138Z,46.20
2022-12-31T11:37:44.263Z,46.50
2022-12-31T11:38:52.522Z,47.10
2022-12-31T11:39:54.779Z,47.00
2022-12-31T11:41:09.597Z,45.80
2022-12-31T11:42:41.559Z,45.70
2022-12-31T11:43:43.767Z,46.40
2022-12-31T11:44:59.819Z,45.60
2022-12-31T11:46:38.617Z,45.90
2022-12-31T11:50:01.937Z,46.10
2022-12-31T11:51:46.860Z,45.70
2022-12-31T11:53:18.842Z,46.20
2022-12-31T11:54:36.197Z,46.40
2022-12-31T11:55:47.436Z,46.30
2022-12-31T11:57:03.365Z,45.10
2022-12-31T11:58:16.743Z,45.40
2022-12-31T11:59:19.963Z,45.60
2022-12-31T12:00:25.020Z,45.30
2022-12-31T12:01:34.234Z,45.10
2022-12-31T12:02:42.544Z,44.80
2022-12-31T12:03:45.969Z,45.60
2022-12-31T12:04:50.809Z,45.20
2022-12-31T12:05:53.328Z,44.80
2022-12-31T12:06:55.907Z,45.10
2022-12-31T12:07:58.252Z,45.30
2022-12-31T12:09:06.879Z,45.60
2022-12-31T12:10:37.283Z,45.50
2022-12-31T12:11:41.309Z,45.60
2022-12-31T12:12:43.763Z,45.40
2022-12-31T12:13:46.617Z,45.20
2022-12-31T12:14:54.027Z,45.10
2022-12-31T12:16:00.282Z,45.10
2022-12-31T12:17:07.363Z,45.60
2022-12-31T12:18:23.194Z,45.40
2022-12-31T12:19:30.258Z,45.40
2022-12-31T12:20:36.652Z,45.60
2022-12-31T12:21:46.471Z,45.20
2022-12-31T12:22:54.300Z,45.00
2022-12-31T12:24:01.753Z,45.10
2022-12-31T12:25:08.100Z,45.20
2022-12-31T12:26:46.101Z,45.70
2022-12-31T12:27:48.979Z,45.70
2022-12-31T12:28:51.235Z,45.80
2022-12-31T12:29:53.582Z,45.60
2022-12-31T12:31:02.605Z,45.40
2022-12-31T12:32:17.171Z,45.80
2022-12-31T12:33:20.367Z,45.00
2022-12-31T12:34:50.156Z,44.50
2022-12-31T12:35:52.640Z,44.60
2022-12-31T12:36:55.129Z,45.10
2022-12-31T12:38:06.228Z,45.20
2022-12-31T12:39:23.811Z,45.30
2022-12-31T12:40:33.827Z,44.80
2022-12-31T12:41:36.797Z,45.50
2022-12-31T12:42:49.964Z,44.70
2022-12-31T12:44:14.168Z,44.70
2022-12-31T12:45:19.992Z,45.40
2022-12-31T12:46:38.405Z,45.10
2022-12-31T12:47:43.798Z,45.30
2022-12-31T12:48:49.485Z,45.40
2022-12-31T12:49:54.850Z,45.50
2022-12-31T12:50:58.188Z,45.40
2022-12-31T12:52:47.666Z,45.20
2022-12-31T12:54:01.278Z,45.40
2022-12-31T12:55:03.743Z,45.40
2022-12-31T12:56:31.065Z,44.90
2022-12-31T12:57:33.388Z,45.00
2022-12-31T12:58:59.832Z,44.80
2022-12-31T13:00:19.689Z,45.60
2022-12-31T13:01:49.826Z,46.00
2022-12-31T13:03:22.266Z,45.80
2022-12-31T13:05:00.080Z,45.80
2022-12-31T13:06:27.999Z,45.70
2022-12-31T13:07:41.046Z,45.80
2022-12-31T13:09:09.014Z,45.90
2022-12-31T13:10:50.137Z,45.90
2022-12-31T13:12:05.413Z,45.90
2022-12-31T13:13:34.002Z,46.00
2022-12-31T13:14:48.151Z,46.00
2022-12-31T13:16:00.855Z,46.10
2022-12-31T13:17:40.723Z,46.00
2022-12-31T13:19:07.800Z,46.00
2022-12-31T13:20:26.477Z,46.00
2022-12-31T13:21:53.781Z,46.10
2022-12-31T13:23:10.854Z,46.10
2022-12-31T13:24:25.258Z,46.10
2022-12-31T13:25:33.085Z,46.20
2022-12-31T13:26:44.812Z,46.20
2022-12-31T13:27:51.043Z,46.20
2022-12-31T13:28:54.359Z,46.20
2022-12-31T13:30:01.150Z,46.40
2022-12-31T13:31:09.563Z,46.50
2022-12-31T13:32:19.386Z,46.50
2022-12-31T13:33:40.224Z,46.50
2022-12-31T13:34:46.200Z,46.60
2022-12-31T13:35:58.753Z,46.60
2022-12-31T13:37:13.670Z,46.90
2022-12-31T13:38:21.721Z,46.40
2022-12-31T13:39:28.573Z,46.60
2022-12-31T13:40:44.652Z,46.60
2022-12-31T13:41:53.621Z,46.70
2022-12-31T13:43:04.729Z,46.80
2022-12-31T13:44:33.082Z,46.80
2022-12-31T13:45:43.531Z,46.70
2022-12-31T13:46:54.428Z,45.80
2022-12-31T13:48:12.937Z,46.10
2022-12-31T13:49:26.907Z,46.50
2022-12-31T13:50:40.334Z,46.80
2022-12-31T13:51:48.511Z,46.80
2022-12-31T13:53:12.257Z,47.00
2022-12-31T13:54:44.436Z,46.80
2022-12-31T13:55:58.781Z,46.90
2022-12-31T13:57:05.926Z,46.80
2022-12-31T13:58:38.358Z,46.90
2022-12-31T13:59:46.582Z,47.00
2022-12-31T14:00:59.746Z,47.00
2022-12-31T14:02:28.368Z,47.00
2022-12-31T14:03:36.858Z,47.00
2022-12-31T14:04:48.612Z,47.10
2022-12-31T14:06:17.609Z,46.70
2022-12-31T14:07:36.386Z,47.00
2022-12-31T14:08:41.407Z,47.40
2022-12-31T14:09:43.868Z,46.90
2022-12-31T14:11:05.521Z,46.90
2022-12-31T14:12:13.535Z,47.00
2022-12-31T14:13:36.636Z,47.00
2022-12-31T14:15:00.546Z,47.00
2022-12-31T14:16:24.640Z,47.10
2022-12-31T14:17:42.426Z,47.10
2022-12-31T14:19:28.984Z,47.20
2022-12-31T14:20:47.579Z,47.10
2022-12-31T14:22:10.159Z,47.10
2022-12-31T14:23:34.286Z,47.10
2022-12-31T14:24:50.530Z,47.20
2022-12-31T14:25:58.587Z,47.20
2022-12-31T14:27:05.271Z,47.00
2022-12-31T14:28:17.508Z,46.70
2022-12-31T14:29:31.807Z,47.00
2022-12-31T14:30:38.778Z,47.20
2022-12-31T14:31:51.753Z,46.00
2022-12-31T14:33:21.044Z,45.70
2022-12-31T14:34:49.703Z,45.40
2022-12-31T14:35:55.092Z,45.30
2022-12-31T14:37:13.698Z,45.30
2022-12-31T14:38:42.223Z,45.30
2022-12-31T14:40:04.380Z,45.20
2022-12-31T14:41:31.836Z,46.60
2022-12-31T14:42:48.906Z,46.20
2022-12-31T14:44:18.680Z,46.60
2022-12-31T14:45:47.613Z,46.80
2022-12-31T14:47:17.056Z,46.80
2022-12-31T14:48:36.881Z,46.90
2022-12-31T14:49:44.939Z,47.10
2022-12-31T14:50:47.603Z,47.10
2022-12-31T14:51:49.889Z,47.10
2022-12-31T14:53:02.248Z,47.10
2022-12-31T14:54:05.011Z,47.20
2022-12-31T14:55:10.135Z,47.30
2022-12-31T14:56:42.261Z,47.30
2022-12-31T14:58:25.725Z,47.30
2022-12-31T14:59:50.997Z,47.30
2022-12-31T15:00:56.757Z,47.40
2022-12-31T15:01:59.553Z,47.40
2022-12-31T15:03:22.790Z,47.30
2022-12-31T15:04:43.683Z,47.40
2022-12-31T15:06:01.767Z,47.40
2022-12-31T15:07:13.595Z,47.80
2022-12-31T15:08:54.441Z,47.40
2022-12-31T15:10:26.725Z,47.40
2022-12-31T15:11:49.855Z,47.40
2022-12-31T15:13:13.348Z,47.50
2022-12-31T15:14:24.865Z,47.50
2022-12-31T15:15:43.612Z,47.50
2022-12-31T15:16:58.965Z,47.50
2022-12-31T15:18:28.552Z,47.60
2022-12-31T15:20:16.707Z,47.60
2022-12-31T15:21:53.528Z,47.50
2022-12-31T15:22:56.253Z,47.50
2022-12-31T15:23:58.744Z,47.50
2022-12-31T15:25:01.644Z,47.30
2022-12-31T15:26:05.514Z,47.40
2022-12-31T15:27:30.784Z,47.60
2022-12-31T15:28:36.249Z,47.80